Time;durP1;ratioP1;P1;durP2;ratioP2;P2;SDS_P1;SDS_P2;PMS_P1;PMS_P2;Temp;Humidity;BMP_temperature;BMP_pressure;BME280_temperature;BME280_humidity;BME280_pressure;Samples;Min_cycle;Max_cycle;Signal;HPM_P1;HPM_P2
2022/03/31 00:02:19;;;;;;;15.80;10.33;;;;;;;;;;5034035;28;20489;-49
2022/03/31 00:04:45;;;;;;;16.50;9.33;;;;;;;;;;5034214;28;20445;-48
2022/03/31 00:07:11;;;;;;;14.83;8.73;;;;;;;;;;5034130;28;20896;-49
2022/03/31 00:09:37;;;;;;;14.93;10.90;;;;;;;;;;5033853;28;20399;-48
2022/03/31 00:12:03;;;;;;;12.93;9.60;;;;;;;;;;5033934;28;20446;-48
2022/03/31 00:14:29;;;;;;;11.83;9.03;;;;;;;;;;5034072;28;20445;-48
2022/03/31 00:16:55;;;;;;;16.37;9.47;;;;;;;;;;5034098;28;20528;-49
2022/03/31 00:19:21;;;;;;;15.37;9.57;;;;;;;;;;5033781;28;20403;-47
2022/03/31 00:34:02;;;;;;;16.05;9.40;;;;;;;;;;5033860;28;20191;-51
2022/03/31 00:36:27;;;;;;;11.13;9.38;;;;;;;;;;5033580;28;20159;-48
2022/03/31 00:41:39;;;;;;;12.38;9.45;;;;;;;;;;5033447;28;20385;-48
2022/03/31 00:44:06;;;;;;;20.63;10.15;;;;;;;;;;5033375;28;20203;-47
2022/03/31 00:46:32;;;;;;;15.90;9.57;;;;;;;;;;5033533;28;20168;-48
2022/03/31 00:49:01;;;;;;;14.25;9.75;;;;;;;;;;5033533;28;20238;-47
2022/03/31 00:51:27;;;;;;;16.77;9.98;;;;;;;;;;5033199;28;20156;-49
2022/03/31 00:53:53;;;;;;;14.25;10.00;;;;;;;;;;5033177;28;20195;-49
2022/03/31 00:56:19;;;;;;;14.27;10.43;;;;;;;;;;5032733;28;20179;-50
2022/03/31 00:58:45;;;;;;;14.40;9.90;;;;;;;;;;5033228;28;20398;-50
2022/03/31 01:01:14;;;;;;;16.73;9.70;;;;;;;;;;5032558;28;20879;-50
2022/03/31 01:03:40;;;;;;;17.85;10.85;;;;;;;;;;5032256;28;20501;-51
2022/03/31 01:06:06;;;;;;;15.10;10.40;;;;;;;;;;5032736;28;20171;-49
2022/03/31 01:08:34;;;;;;;14.15;9.98;;;;;;;;;;5033210;28;20831;-50
2022/03/31 01:11:00;;;;;;;13.07;9.88;;;;;;;;;;5032947;28;20191;-50
2022/03/31 01:13:26;;;;;;;18.88;11.90;;;;;;;;;;5032845;28;20187;-49
2022/03/31 01:15:52;;;;;;;16.80;11.40;;;;;;;;;;5032714;28;20547;-49
2022/03/31 01:18:19;;;;;;;16.23;10.02;;;;;;;;;;5032887;28;20395;-49
2022/03/31 01:20:45;;;;;;;18.38;11.18;;;;;;;;;;5032577;28;20178;-50
2022/03/31 01:23:14;;;;;;;16.77;10.57;;;;;;;;;;5032547;28;20288;-50
2022/03/31 01:25:40;;;;;;;13.95;10.95;;;;;;;;;;5032653;28;20433;-48
2022/03/31 01:28:07;;;;;;;19.38;10.52;;;;;;;;;;5032563;28;20188;-48
2022/03/31 01:30:33;;;;;;;20.27;11.13;;;;;;;;;;5032345;28;20175;-49
2022/03/31 01:32:59;;;;;;;16.33;12.05;;;;;;;;;;5032445;28;20274;-50
2022/03/31 01:35:26;;;;;;;19.50;10.93;;;;;;;;;;5032506;28;20257;-49
2022/03/31 01:37:52;;;;;;;18.73;11.35;;;;;;;;;;5032607;28;20434;-50
2022/03/31 01:40:18;;;;;;;14.25;11.10;;;;;;;;;;5032230;28;20670;-50
2022/03/31 01:42:45;;;;;;;12.82;10.30;;;;;;;;;;5032182;28;20196;-49
2022/03/31 01:45:12;;;;;;;17.42;10.82;;;;;;;;;;5032341;28;20211;-50
2022/03/31 01:47:39;;;;;;;17.83;11.52;;;;;;;;;;5032287;28;20164;-50
2022/03/31 01:50:09;;;;;;;14.85;9.57;;;;;;;;;;5032064;28;20175;-50
2022/03/31 01:52:35;;;;;;;16.58;11.40;;;;;;;;;;5032117;28;20677;-50
2022/03/31 01:55:01;;;;;;;13.52;11.15;;;;;;;;;;5032186;28;20171;-49
2022/03/31 02:00:30;;;;;;;12.32;10.63;;;;;;;;;;5031922;28;20382;-48
2022/03/31 02:02:56;;;;;;;20.53;11.60;;;;;;;;;;5031779;28;20403;-49
2022/03/31 02:05:22;;;;;;;23.88;11.73;;;;;;;;;;5032053;28;20402;-49
2022/03/31 02:07:48;;;;;;;19.27;11.05;;;;;;;;;;5031349;28;20213;-50
2022/03/31 02:10:15;;;;;;;18.02;11.20;;;;;;;;;;5031839;28;20167;-50
2022/03/31 02:12:41;;;;;;;17.05;11.40;;;;;;;;;;5031852;28;20326;-48
2022/03/31 02:15:10;;;;;;;16.35;11.63;;;;;;;;;;5031930;28;20247;-48
2022/03/31 02:17:36;;;;;;;16.00;11.90;;;;;;;;;;5031752;28;20174;-48
2022/03/31 02:20:02;;;;;;;14.35;11.50;;;;;;;;;;5031688;28;20646;-48
2022/03/31 02:22:28;;;;;;;13.95;11.15;;;;;;;;;;5031578;28;20286;-49
2022/03/31 02:24:54;;;;;;;14.87;10.73;;;;;;;;;;5031943;28;20262;-49
2022/03/31 02:27:20;;;;;;;16.20;11.50;;;;;;;;;;5031926;28;20775;-48
2022/03/31 02:29:46;;;;;;;17.77;12.70;;;;;;;;;;5031549;28;20456;-49
2022/03/31 02:32:12;;;;;;;19.90;12.97;;;;;;;;;;5031497;28;20496;-50
2022/03/31 02:34:38;;;;;;;17.57;12.23;;;;;;;;;;5031963;28;20486;-49
2022/03/31 02:37:04;;;;;;;17.63;12.33;;;;;;;;;;5031682;28;20886;-49
2022/03/31 02:39:30;;;;;;;15.20;11.05;;;;;;;;;;5031514;28;20457;-50
2022/03/31 02:41:57;;;;;;;16.60;12.25;;;;;;;;;;5031583;28;20199;-50
2022/03/31 02:44:23;;;;;;;24.80;14.55;;;;;;;;;;5031581;28;20245;-48
2022/03/31 02:46:49;;;;;;;20.35;11.98;;;;;;;;;;5031538;28;20246;-49
2022/03/31 02:49:15;;;;;;;17.67;12.40;;;;;;;;;;5031544;28;20670;-47
2022/03/31 02:51:41;;;;;;;20.37;12.60;;;;;;;;;;5031359;28;20413;-47
2022/03/31 02:56:52;;;;;;;21.95;11.98;;;;;;;;;;5031996;28;20202;-48
2022/03/31 02:59:18;;;;;;;18.95;12.88;;;;;;;;;;5031539;28;20581;-49
2022/03/31 03:01:44;;;;;;;22.80;13.07;;;;;;;;;;5031212;28;20172;-50
2022/03/31 03:04:10;;;;;;;20.87;13.30;;;;;;;;;;5031465;28;20449;-51
2022/03/31 03:06:36;;;;;;;21.02;13.82;;;;;;;;;;5031446;28;20398;-50
2022/03/31 03:09:03;;;;;;;16.40;12.82;;;;;;;;;;5031723;28;20221;-48
2022/03/31 03:11:29;;;;;;;18.33;14.27;;;;;;;;;;5031241;28;20160;-48
2022/03/31 03:13:55;;;;;;;22.42;14.23;;;;;;;;;;5031146;28;20190;-48
2022/03/31 03:16:21;;;;;;;19.30;12.70;;;;;;;;;;5031328;28;20647;-49
2022/03/31 03:18:47;;;;;;;20.45;13.88;;;;;;;;;;5033290;28;20882;-49
2022/03/31 03:21:14;;;;;;;19.70;13.10;;;;;;;;;;5035281;28;20175;-48
2022/03/31 03:23:40;;;;;;;24.02;13.52;;;;;;;;;;5034822;28;20454;-48
2022/03/31 03:26:07;;;;;;;22.02;14.77;;;;;;;;;;5034940;28;20177;-49
2022/03/31 03:28:36;;;;;;;19.38;13.52;;;;;;;;;;5034884;28;20164;-49
2022/03/31 03:31:02;;;;;;;20.05;15.52;;;;;;;;;;5034635;28;20160;-49
2022/03/31 03:33:28;;;;;;;19.58;13.40;;;;;;;;;;5034657;28;20188;-48
2022/03/31 03:35:54;;;;;;;21.37;13.67;;;;;;;;;;5034903;28;20554;-47
2022/03/31 03:38:20;;;;;;;23.85;15.50;;;;;;;;;;5034823;28;20489;-48
2022/03/31 03:40:47;;;;;;;27.03;15.40;;;;;;;;;;5034470;28;20273;-49
2022/03/31 03:43:13;;;;;;;26.65;16.20;;;;;;;;;;5034278;28;20932;-47
2022/03/31 03:45:39;;;;;;;25.67;14.93;;;;;;;;;;5034698;28;20471;-49
2022/03/31 03:48:06;;;;;;;22.73;15.17;;;;;;;;;;5034734;28;20416;-49
2022/03/31 03:50:33;;;;;;;21.48;14.43;;;;;;;;;;5034204;28;20441;-49
2022/03/31 03:52:59;;;;;;;23.42;15.43;;;;;;;;;;5034334;28;20214;-48
2022/03/31 03:55:25;;;;;;;24.40;16.25;;;;;;;;;;5034433;28;20168;-49
2022/03/31 03:57:51;;;;;;;23.27;15.37;;;;;;;;;;5034341;28;20353;-50
2022/03/31 04:00:18;;;;;;;24.73;15.57;;;;;;;;;;5034052;28;20460;-50
2022/03/31 04:02:44;;;;;;;24.45;15.10;;;;;;;;;;5034043;28;20465;-48
2022/03/31 04:05:10;;;;;;;21.27;14.90;;;;;;;;;;5034189;28;20192;-47
2022/03/31 04:07:36;;;;;;;25.98;15.13;;;;;;;;;;5034240;28;20686;-48
2022/03/31 04:10:02;;;;;;;22.13;14.83;;;;;;;;;;5033987;28;20386;-50
2022/03/31 04:12:28;;;;;;;24.52;15.23;;;;;;;;;;5033971;28;20427;-49
2022/03/31 04:14:54;;;;;;;27.33;17.50;;;;;;;;;;5034222;28;20233;-49
2022/03/31 04:17:20;;;;;;;19.03;14.20;;;;;;;;;;5034083;28;20490;-49
2022/03/31 04:19:46;;;;;;;20.97;13.90;;;;;;;;;;5033767;28;20402;-49
2022/03/31 04:22:12;;;;;;;21.90;13.60;;;;;;;;;;5033730;28;20430;-49
2022/03/31 04:24:39;;;;;;;22.45;13.65;;;;;;;;;;5033878;28;20879;-50
2022/03/31 04:27:05;;;;;;;22.95;13.20;;;;;;;;;;5033719;28;20179;-49
2022/03/31 04:29:31;;;;;;;28.60;15.10;;;;;;;;;;5032716;28;20164;-50
2022/03/31 04:31:57;;;;;;;23.67;14.87;;;;;;;;;;5033633;28;20765;-49
2022/03/31 04:34:23;;;;;;;18.60;12.47;;;;;;;;;;5033723;28;20414;-48
2022/03/31 04:36:49;;;;;;;19.92;13.15;;;;;;;;;;5033685;28;20489;-50
2022/03/31 04:39:16;;;;;;;20.60;12.93;;;;;;;;;;5033398;28;20214;-49
2022/03/31 04:41:42;;;;;;;20.85;13.05;;;;;;;;;;5033354;28;20878;-48
2022/03/31 04:44:09;;;;;;;21.42;13.02;;;;;;;;;;5033345;28;20699;-49
2022/03/31 04:46:35;;;;;;;24.13;13.52;;;;;;;;;;5033628;28;20195;-48
2022/03/31 04:49:02;;;;;;;26.10;14.35;;;;;;;;;;5033224;28;20179;-49
2022/03/31 04:51:28;;;;;;;27.90;12.80;;;;;;;;;;5033369;28;20202;-49
2022/03/31 04:53:54;;;;;;;25.55;14.80;;;;;;;;;;5033182;28;20192;-49
2022/03/31 04:56:21;;;;;;;22.65;13.90;;;;;;;;;;5033295;28;20164;-50
2022/03/31 04:58:47;;;;;;;26.42;15.93;;;;;;;;;;5033173;28;20164;-50
2022/03/31 05:01:13;;;;;;;24.80;15.40;;;;;;;;;;5033004;28;20164;-48
2022/03/31 05:03:39;;;;;;;26.55;16.05;;;;;;;;;;5032994;28;20458;-50
2022/03/31 05:06:06;;;;;;;27.13;15.80;;;;;;;;;;5033109;28;20246;-50
2022/03/31 05:08:32;;;;;;;31.83;15.38;;;;;;;;;;5033019;28;20160;-49
2022/03/31 05:10:58;;;;;;;29.93;16.10;;;;;;;;;;5033043;28;20234;-50
2022/03/31 05:13:24;;;;;;;28.17;17.27;;;;;;;;;;5032767;28;20458;-49
2022/03/31 05:15:50;;;;;;;29.63;16.63;;;;;;;;;;5032925;28;20464;-49
2022/03/31 05:18:16;;;;;;;30.92;19.40;;;;;;;;;;5032899;28;20199;-49
2022/03/31 05:20:43;;;;;;;26.38;16.42;;;;;;;;;;5032621;28;20178;-49
2022/03/31 05:23:09;;;;;;;27.45;16.30;;;;;;;;;;5032432;28;20274;-50
2022/03/31 05:25:35;;;;;;;30.13;16.73;;;;;;;;;;5033041;28;20200;-49
2022/03/31 05:28:01;;;;;;;31.00;15.97;;;;;;;;;;5032795;28;20602;-50
2022/03/31 05:30:27;;;;;;;30.13;16.97;;;;;;;;;;5032417;28;20763;-48
2022/03/31 05:32:53;;;;;;;24.33;15.90;;;;;;;;;;5032428;28;20847;-49
2022/03/31 05:35:20;;;;;;;27.25;17.08;;;;;;;;;;5032562;28;20218;-49
2022/03/31 05:37:46;;;;;;;28.33;16.38;;;;;;;;;;5032436;28;20188;-49
2022/03/31 05:40:13;;;;;;;31.73;16.85;;;;;;;;;;5032511;28;20180;-49
2022/03/31 05:42:40;;;;;;;26.80;17.05;;;;;;;;;;5032055;28;20750;-50
2022/03/31 05:45:07;;;;;;;28.10;17.45;;;;;;;;;;5032362;28;20217;-50
2022/03/31 05:47:33;;;;;;;27.38;17.45;;;;;;;;;;5032403;28;20236;-49
2022/03/31 05:49:59;;;;;;;32.53;16.88;;;;;;;;;;5032558;28;20183;-48
2022/03/31 05:52:25;;;;;;;28.80;19.17;;;;;;;;;;5032083;28;20318;-47
2022/03/31 05:54:51;;;;;;;34.23;16.93;;;;;;;;;;5032258;28;20254;-50
2022/03/31 05:57:17;;;;;;;29.42;16.15;;;;;;;;;;5032183;28;20405;-50
2022/03/31 05:59:43;;;;;;;33.30;17.23;;;;;;;;;;5032025;28;20176;-50
2022/03/31 06:02:11;;;;;;;32.47;16.90;;;;;;;;;;5031968;28;20209;-49
2022/03/31 06:04:37;;;;;;;25.73;14.68;;;;;;;;;;5031864;28;20172;-49
2022/03/31 06:07:03;;;;;;;27.30;15.48;;;;;;;;;;5030974;28;20262;-49
2022/03/31 06:09:29;;;;;;;27.27;14.93;;;;;;;;;;5031142;28;20247;-48
2022/03/31 06:11:55;;;;;;;23.63;14.47;;;;;;;;;;5031232;28;20970;-50
2022/03/31 06:14:21;;;;;;;28.88;15.00;;;;;;;;;;5031223;28;20402;-49
2022/03/31 06:16:49;;;;;;;28.17;17.10;;;;;;;;;;5028040;28;20539;-49
2022/03/31 06:19:15;;;;;;;29.33;16.20;;;;;;;;;;5029803;28;20418;-50
2022/03/31 06:21:41;;;;;;;30.23;16.50;;;;;;;;;;5029748;28;20632;-49
2022/03/31 06:24:07;;;;;;;25.88;15.95;;;;;;;;;;5030038;28;20222;-49
2022/03/31 06:26:33;;;;;;;33.30;17.83;;;;;;;;;;5030247;28;20182;-49
2022/03/31 06:29:00;;;;;;;29.90;15.85;;;;;;;;;;5031145;28;20243;-50
2022/03/31 06:31:26;;;;;;;29.27;17.65;;;;;;;;;;5031624;28;20221;-46
2022/03/31 06:33:52;;;;;;;27.42;18.08;;;;;;;;;;5031507;28;20187;-47
2022/03/31 06:36:18;;;;;;;26.48;18.30;;;;;;;;;;5031717;28;20195;-47
2022/03/31 06:38:46;;;;;;;29.20;18.40;;;;;;;;;;5031708;28;20214;-49
2022/03/31 06:41:17;;;;;;;27.83;17.95;;;;;;;;;;5031397;28;20541;-48
2022/03/31 06:43:45;;;;;;;32.55;18.67;;;;;;;;;;5031557;28;20697;-46
2022/03/31 06:46:12;;;;;;;32.10;18.63;;;;;;;;;;5031655;28;20624;-45
2022/03/31 06:48:41;;;;;;;33.30;18.70;;;;;;;;;;5031477;28;20175;-46
2022/03/31 06:51:08;;;;;;;32.83;18.48;;;;;;;;;;5031528;28;20241;-48
2022/03/31 06:53:37;;;;;;;33.40;20.98;;;;;;;;;;5033295;28;20217;-45
2022/03/31 06:56:03;;;;;;;30.02;19.30;;;;;;;;;;5035554;28;20164;-45
2022/03/31 06:58:30;;;;;;;34.42;20.80;;;;;;;;;;5035628;28;20183;-45
2022/03/31 07:00:56;;;;;;;32.50;20.83;;;;;;;;;;5035291;28;20167;-49
2022/03/31 07:03:22;;;;;;;38.08;20.30;;;;;;;;;;5035386;28;20199;-45
2022/03/31 07:05:49;;;;;;;30.20;19.88;;;;;;;;;;5035393;28;20199;-46
2022/03/31 07:08:14;;;;;;;28.88;19.35;;;;;;;;;;5035599;28;20595;-46
2022/03/31 07:10:40;;;;;;;40.10;21.80;;;;;;;;;;5035149;28;20196;-46
2022/03/31 07:13:06;;;;;;;30.03;19.30;;;;;;;;;;5034741;28;20866;-49
2022/03/31 07:15:33;;;;;;;26.65;17.42;;;;;;;;;;5035027;28;20418;-51
2022/03/31 07:18:05;;;;;;;27.08;18.70;;;;;;;;;;5035218;28;20179;-48
2022/03/31 07:20:31;;;;;;;31.02;18.67;;;;;;;;;;5034368;28;20717;-47
2022/03/31 07:22:57;;;;;;;28.88;18.40;;;;;;;;;;5033789;28;20203;-48
2022/03/31 07:25:23;;;;;;;25.93;16.50;;;;;;;;;;5034999;28;20531;-48
2022/03/31 07:27:50;;;;;;;20.92;15.55;;;;;;;;;;5034287;28;20514;-49
2022/03/31 07:30:17;;;;;;;22.90;15.02;;;;;;;;;;5034467;28;20167;-47
2022/03/31 07:32:50;;;;;;;28.17;15.60;;;;;;;;;;5033323;28;20257;-46
2022/03/31 07:35:16;;;;;;;21.80;15.00;;;;;;;;;;5035712;28;20172;-47
2022/03/31 07:37:42;;;;;;;27.42;13.80;;;;;;;;;;5038555;28;20516;-46
2022/03/31 07:40:09;;;;;;;22.00;15.03;;;;;;;;;;5038882;28;20261;-47
2022/03/31 07:42:35;;;;;;;23.17;15.30;;;;;;;;;;5034131;28;20833;-48
2022/03/31 07:45:01;;;;;;;19.27;14.07;;;;;;;;;;5034636;28;20876;-47
2022/03/31 07:47:27;;;;;;;20.80;14.70;;;;;;;;;;5034702;28;20410;-47
2022/03/31 07:49:53;;;;;;;22.43;15.03;;;;;;;;;;5039668;28;20422;-48
2022/03/31 07:52:21;;;;;;;21.25;13.90;;;;;;;;;;5038560;28;20438;-50
2022/03/31 07:54:47;;;;;;;19.00;12.90;;;;;;;;;;5034172;28;20181;-48
2022/03/31 07:57:14;;;;;;;18.27;13.45;;;;;;;;;;5034312;28;20917;-47
2022/03/31 07:59:40;;;;;;;23.20;13.60;;;;;;;;;;5034061;28;20566;-48
2022/03/31 08:02:07;;;;;;;20.63;14.70;;;;;;;;;;5034008;28;20481;-48
2022/03/31 08:04:33;;;;;;;18.37;13.90;;;;;;;;;;5032888;28;20454;-47
2022/03/31 08:07:00;;;;;;;22.93;15.47;;;;;;;;;;5034072;28;20508;-46
2022/03/31 08:09:26;;;;;;;21.73;14.87;;;;;;;;;;5034200;28;20406;-46
2022/03/31 08:11:52;;;;;;;26.03;13.87;;;;;;;;;;5033866;28;20435;-48
2022/03/31 08:14:19;;;;;;;19.47;12.23;;;;;;;;;;5034325;28;20423;-49
2022/03/31 08:16:46;;;;;;;22.13;14.33;;;;;;;;;;5034136;28;20413;-47
2022/03/31 08:19:18;;;;;;;23.00;14.37;;;;;;;;;;5034018;28;20413;-47
2022/03/31 08:21:45;;;;;;;26.23;14.40;;;;;;;;;;5048075;28;20503;-46
2022/03/31 08:24:13;;;;;;;23.50;14.37;;;;;;;;;;5037979;28;21008;-48
2022/03/31 08:26:40;;;;;;;20.80;12.77;;;;;;;;;;5039648;28;20415;-46
2022/03/31 08:29:07;;;;;;;24.23;13.77;;;;;;;;;;5033998;28;20430;-46
2022/03/31 08:31:34;;;;;;;20.37;13.47;;;;;;;;;;5033049;28;20913;-47
2022/03/31 08:34:00;;;;;;;23.60;14.10;;;;;;;;;;5033676;28;20429;-49
2022/03/31 08:36:26;;;;;;;19.50;13.47;;;;;;;;;;5033659;28;20451;-48
2022/03/31 08:38:52;;;;;;;24.77;14.10;;;;;;;;;;5033819;28;20445;-46
2022/03/31 08:41:19;;;;;;;21.40;13.60;;;;;;;;;;5018489;28;20414;-46
2022/03/31 08:43:45;;;;;;;21.40;14.20;;;;;;;;;;5013930;28;20548;-46
2022/03/31 08:46:11;;;;;;;24.03;14.13;;;;;;;;;;5025258;28;20915;-47
2022/03/31 08:48:38;;;;;;;23.07;14.33;;;;;;;;;;5033135;28;20499;-48
2022/03/31 08:51:04;;;;;;;19.77;13.80;;;;;;;;;;5032958;28;20896;-46
2022/03/31 08:53:31;;;;;;;22.33;13.43;;;;;;;;;;5032998;28;20471;-46
2022/03/31 08:55:57;;;;;;;23.43;16.07;;;;;;;;;;5032831;28;20460;-49
2022/03/31 08:58:23;;;;;;;20.10;13.73;;;;;;;;;;5028957;28;20452;-46
2022/03/31 09:00:49;;;;;;;18.83;12.47;;;;;;;;;;5032626;28;20468;-46
2022/03/31 09:03:16;;;;;;;19.00;12.27;;;;;;;;;;5032953;28;20454;-46
2022/03/31 09:05:49;;;;;;;20.67;12.60;;;;;;;;;;5032835;28;20823;-47
2022/03/31 09:08:16;;;;;;;20.83;12.43;;;;;;;;;;5032486;28;21208;-47
2022/03/31 09:10:44;;;;;;;20.20;13.00;;;;;;;;;;5032761;28;20405;-46
2022/03/31 09:13:23;;;;;;;18.97;13.80;;;;;;;;;;5032849;28;20422;-49
2022/03/31 09:15:50;;;;;;;20.50;12.53;;;;;;;;;;5032475;28;20458;-51
2022/03/31 09:18:18;;;;;;;19.47;12.70;;;;;;;;;;5032867;28;20419;-50
2022/03/31 09:20:44;;;;;;;20.57;13.30;;;;;;;;;;5032467;28;20499;-51
2022/03/31 09:23:20;;;;;;;24.10;14.23;;;;;;;;;;5032573;28;20564;-51
2022/03/31 09:25:47;;;;;;;21.63;14.23;;;;;;;;;;5028014;28;20416;-50
2022/03/31 09:28:18;;;;;;;19.67;14.27;;;;;;;;;;5012895;28;20437;-50
2022/03/31 09:30:45;;;;;;;18.20;11.93;;;;;;;;;;5012566;28;20543;-49
2022/03/31 09:33:11;;;;;;;20.93;13.80;;;;;;;;;;5012919;28;20784;-50
2022/03/31 09:35:37;;;;;;;19.70;13.13;;;;;;;;;;5012845;28;20536;-48
2022/03/31 09:38:13;;;;;;;20.93;13.63;;;;;;;;;;5012945;28;20490;-48
2022/03/31 09:40:39;;;;;;;22.80;13.57;;;;;;;;;;5012548;28;20408;-47
2022/03/31 09:43:05;;;;;;;22.50;13.10;;;;;;;;;;5024947;28;20476;-48
2022/03/31 09:45:38;;;;;;;18.70;12.60;;;;;;;;;;5032244;28;20402;-49
2022/03/31 09:48:04;;;;;;;23.80;15.53;;;;;;;;;;5031965;28;20777;-49
2022/03/31 09:50:36;;;;;;;19.00;13.13;;;;;;;;;;5032003;28;20480;-49
2022/03/31 09:53:03;;;;;;;20.27;13.50;;;;;;;;;;5031662;28;20454;-49
2022/03/31 09:55:29;;;;;;;24.03;15.00;;;;;;;;;;5032213;28;20481;-49
2022/03/31 09:57:57;;;;;;;24.27;14.83;;;;;;;;;;5032781;28;20937;-48
2022/03/31 10:00:24;;;;;;;26.07;15.37;;;;;;;;;;5051689;28;20409;-47
2022/03/31 10:02:51;;;;;;;23.27;13.20;;;;;;;;;;5035233;28;20458;-46
2022/03/31 10:05:18;;;;;;;20.37;14.10;;;;;;;;;;5032256;28;20429;-49
2022/03/31 10:07:46;;;;;;;20.17;14.00;;;;;;;;;;5031767;28;20417;-46
2022/03/31 10:10:12;;;;;;;25.13;15.23;;;;;;;;;;5031824;28;20412;-46
2022/03/31 10:12:44;;;;;;;23.87;13.87;;;;;;;;;;5031469;28;20434;-46
2022/03/31 10:15:14;;;;;;;22.37;14.70;;;;;;;;;;5031530;28;20452;-46
2022/03/31 10:17:42;;;;;;;20.20;14.43;;;;;;;;;;5031525;28;20417;-50
2022/03/31 10:20:09;;;;;;;23.30;14.93;;;;;;;;;;5031527;28;20426;-45
2022/03/31 10:25:20;;;;;;;22.40;15.37;;;;;;;;;;5031440;28;20785;-45
2022/03/31 10:27:46;;;;;;;23.57;16.10;;;;;;;;;;5030665;28;20500;-46
2022/03/31 10:30:16;;;;;;;25.50;16.40;;;;;;;;;;5031665;28;20396;-46
2022/03/31 10:32:51;;;;;;;26.60;18.53;;;;;;;;;;5024220;28;20431;-45
2022/03/31 10:35:22;;;;;;;22.10;15.00;;;;;;;;;;5012075;28;20403;-48
2022/03/31 10:37:48;;;;;;;23.87;15.43;;;;;;;;;;5011801;28;20885;-46
2022/03/31 10:40:16;;;;;;;27.27;16.00;;;;;;;;;;5011892;28;20486;-47
2022/03/31 10:42:42;;;;;;;26.20;15.93;;;;;;;;;;5011775;28;20446;-47
2022/03/31 10:45:09;;;;;;;23.23;16.70;;;;;;;;;;5021469;28;20432;-47
2022/03/31 10:47:35;;;;;;;23.00;15.70;;;;;;;;;;5031722;28;20428;-50
2022/03/31 10:50:02;;;;;;;23.77;16.50;;;;;;;;;;5031231;28;20417;-51
2022/03/31 10:52:28;;;;;;;27.60;16.77;;;;;;;;;;5031357;28;20461;-50
2022/03/31 10:55:04;;;;;;;29.13;16.17;;;;;;;;;;5031597;28;20432;-48
2022/03/31 10:57:37;;;;;;;25.57;17.10;;;;;;;;;;5031293;28;20402;-51
2022/03/31 11:00:07;;;;;;;25.07;15.90;;;;;;;;;;5031323;28;20815;-49
2022/03/31 11:02:39;;;;;;;25.47;15.70;;;;;;;;;;5031270;28;20432;-52
2022/03/31 11:05:05;;;;;;;19.80;14.47;;;;;;;;;;5031552;28;20395;-52
2022/03/31 11:07:31;;;;;;;21.93;15.40;;;;;;;;;;5031399;28;20437;-47
2022/03/31 11:10:00;;;;;;;23.37;16.47;;;;;;;;;;5031322;28;20902;-46
2022/03/31 11:12:28;;;;;;;25.97;16.37;;;;;;;;;;5031293;28;20442;-46
2022/03/31 11:14:55;;;;;;;24.50;16.47;;;;;;;;;;5031390;28;20464;-49
2022/03/31 11:17:22;;;;;;;23.80;15.40;;;;;;;;;;5031325;28;20473;-47
2022/03/31 11:19:49;;;;;;;27.40;16.83;;;;;;;;;;5031331;28;20938;-46
2022/03/31 11:22:18;;;;;;;26.10;17.70;;;;;;;;;;5031221;28;20832;-47
2022/03/31 11:24:44;;;;;;;28.13;17.67;;;;;;;;;;5031270;28;20477;-46
2022/03/31 11:27:10;;;;;;;26.57;16.93;;;;;;;;;;5031294;28;20958;-46
2022/03/31 11:29:36;;;;;;;24.03;17.30;;;;;;;;;;5031005;28;20481;-47
2022/03/31 11:32:03;;;;;;;28.23;18.83;;;;;;;;;;5031021;28;20502;-47
2022/03/31 11:34:29;;;;;;;31.93;18.87;;;;;;;;;;5031131;28;20400;-48
2022/03/31 11:36:55;;;;;;;26.90;17.73;;;;;;;;;;5031123;28;20404;-46
2022/03/31 11:39:28;;;;;;;24.33;16.77;;;;;;;;;;5032278;28;20408;-49
2022/03/31 11:41:54;;;;;;;26.30;16.60;;;;;;;;;;5037699;28;20938;-49
2022/03/31 11:44:21;;;;;;;26.83;16.00;;;;;;;;;;5034508;28;20457;-48
2022/03/31 11:46:49;;;;;;;24.23;16.43;;;;;;;;;;5032971;28;20442;-49
2022/03/31 11:49:15;;;;;;;24.33;16.40;;;;;;;;;;5032907;28;20437;-47
2022/03/31 11:51:41;;;;;;;24.77;17.13;;;;;;;;;;5034604;28;20414;-48
2022/03/31 11:54:08;;;;;;;24.27;15.27;;;;;;;;;;5034316;28;21196;-49
2022/03/31 11:56:34;;;;;;;25.30;17.00;;;;;;;;;;5034509;28;20402;-46
2022/03/31 11:59:03;;;;;;;24.90;16.77;;;;;;;;;;5035058;28;20428;-47
2022/03/31 12:01:47;;;;;;;22.20;15.47;;;;;;;;;;5033802;28;20848;-46
2022/03/31 12:04:19;;;;;;;23.00;15.17;;;;;;;;;;5033396;28;20468;-47
2022/03/31 12:06:46;;;;;;;19.90;14.60;;;;;;;;;;5034395;28;20441;-46
2022/03/31 12:09:12;;;;;;;21.57;16.47;;;;;;;;;;5034141;28;20501;-48
2022/03/31 12:11:38;;;;;;;23.90;16.47;;;;;;;;;;5034270;28;20489;-46
2022/03/31 12:14:04;;;;;;;22.00;13.60;;;;;;;;;;5033995;28;20494;-47
2022/03/31 12:16:41;;;;;;;18.17;11.93;;;;;;;;;;5034339;28;20442;-49
2022/03/31 12:19:07;;;;;;;22.90;14.20;;;;;;;;;;5033969;28;20405;-48
2022/03/31 12:21:44;;;;;;;20.77;14.00;;;;;;;;;;5033228;28;20429;-47
2022/03/31 12:24:10;;;;;;;19.13;13.37;;;;;;;;;;5019548;28;20455;-47
2022/03/31 12:26:36;;;;;;;22.03;15.33;;;;;;;;;;5033265;28;20446;-46
2022/03/31 12:29:02;;;;;;;23.07;14.77;;;;;;;;;;5030121;28;20496;-47
2022/03/31 12:31:30;;;;;;;23.20;14.67;;;;;;;;;;5033242;28;20505;-46
2022/03/31 12:33:56;;;;;;;23.83;15.30;;;;;;;;;;5033074;28;20437;-48
2022/03/31 12:36:23;;;;;;;22.03;15.07;;;;;;;;;;5032984;28;20920;-47
2022/03/31 12:38:51;;;;;;;23.03;16.27;;;;;;;;;;5033067;28;20430;-46
2022/03/31 12:41:17;;;;;;;26.67;17.80;;;;;;;;;;5033064;28;20421;-46
2022/03/31 12:43:54;;;;;;;25.43;17.27;;;;;;;;;;5032914;28;20591;-47
2022/03/31 12:46:20;;;;;;;32.60;18.50;;;;;;;;;;5032522;28;20519;-46
2022/03/31 12:48:57;;;;;;;24.70;17.47;;;;;;;;;;5033461;28;20513;-46
2022/03/31 12:51:24;;;;;;;25.23;17.83;;;;;;;;;;5022335;28;20823;-46
2022/03/31 12:53:51;;;;;;;30.07;17.83;;;;;;;;;;5033098;28;20422;-46
2022/03/31 12:56:27;;;;;;;27.53;20.17;;;;;;;;;;5032860;28;20424;-46
2022/03/31 12:58:55;;;;;;;29.00;16.40;;;;;;;;;;5041747;28;20448;-46
2022/03/31 13:01:22;;;;;;;33.60;19.23;;;;;;;;;;5034917;28;20427;-46
2022/03/31 13:03:48;;;;;;;28.33;17.30;;;;;;;;;;5032140;28;20893;-49
2022/03/31 13:06:15;;;;;;;25.97;18.23;;;;;;;;;;5031625;28;20424;-47
2022/03/31 13:08:41;;;;;;;27.80;18.80;;;;;;;;;;5031763;28;20449;-46
2022/03/31 13:11:07;;;;;;;29.27;20.43;;;;;;;;;;5032480;28;20452;-47
2022/03/31 13:13:33;;;;;;;30.57;19.20;;;;;;;;;;5032301;28;20452;-46
2022/03/31 13:15:59;;;;;;;26.30;16.47;;;;;;;;;;5032564;28;20428;-49
2022/03/31 13:18:26;;;;;;;27.23;17.70;;;;;;;;;;5032717;28;20400;-48
2022/03/31 13:20:52;;;;;;;25.40;17.27;;;;;;;;;;5032143;28;20415;-48
2022/03/31 13:23:18;;;;;;;31.37;18.03;;;;;;;;;;5032746;28;20524;-48
2022/03/31 13:25:46;;;;;;;25.40;17.30;;;;;;;;;;5032563;28;20414;-47
2022/03/31 13:28:12;;;;;;;28.97;18.10;;;;;;;;;;5032790;28;20417;-47
2022/03/31 13:30:38;;;;;;;23.57;17.03;;;;;;;;;;5031827;28;20417;-47
2022/03/31 13:33:04;;;;;;;27.53;18.33;;;;;;;;;;5032546;28;20436;-49
2022/03/31 13:35:30;;;;;;;27.70;18.10;;;;;;;;;;5032010;28;20466;-49
2022/03/31 13:37:56;;;;;;;28.70;17.13;;;;;;;;;;5032611;28;20480;-48
2022/03/31 13:40:22;;;;;;;28.47;17.93;;;;;;;;;;5022366;28;20504;-46
2022/03/31 13:42:49;;;;;;;28.43;19.17;;;;;;;;;;5012685;28;20542;-47
2022/03/31 13:45:15;;;;;;;35.23;20.10;;;;;;;;;;5035774;28;20424;-47
2022/03/31 13:47:45;;;;;;;35.17;21.30;;;;;;;;;;5035503;28;20410;-47
2022/03/31 13:50:11;;;;;;;30.80;20.43;;;;;;;;;;5036036;28;20435;-46
2022/03/31 13:52:37;;;;;;;37.73;19.60;;;;;;;;;;5041399;28;20422;-47
2022/03/31 13:55:05;;;;;;;35.67;20.50;;;;;;;;;;5032368;28;20954;-46
2022/03/31 14:03:18;;;;;;;39.33;23.40;;;;;;;;;;4982280;28;20491;-46
2022/03/31 14:05:46;;;;;;;33.83;21.93;;;;;;;;;;5021390;28;20497;-47
2022/03/31 14:08:11;;;;;;;34.27;21.27;;;;;;;;;;5029329;28;20400;-48
2022/03/31 14:10:37;;;;;;;39.13;21.00;;;;;;;;;;5031073;28;20823;-48
2022/03/31 14:13:03;;;;;;;41.80;22.20;;;;;;;;;;5030028;28;20807;-51
2022/03/31 14:15:30;;;;;;;37.83;21.80;;;;;;;;;;5030436;28;20453;-50
2022/03/31 14:17:58;;;;;;;38.20;22.80;;;;;;;;;;5031992;28;20486;-50
2022/03/31 14:20:24;;;;;;;41.83;21.67;;;;;;;;;;5031477;28;20772;-50
2022/03/31 14:22:50;;;;;;;43.03;23.10;;;;;;;;;;5030707;28;20518;-46
2022/03/31 14:25:16;;;;;;;35.87;20.00;;;;;;;;;;5029108;28;20414;-50
2022/03/31 14:27:42;;;;;;;39.97;22.00;;;;;;;;;;5031490;28;20412;-50
2022/03/31 14:30:09;;;;;;;34.40;20.07;;;;;;;;;;5031627;28;20421;-49
2022/03/31 14:32:36;;;;;;;41.30;22.50;;;;;;;;;;5031371;28;20505;-50
2022/03/31 14:35:02;;;;;;;43.43;21.93;;;;;;;;;;5030997;28;20448;-49
2022/03/31 14:37:28;;;;;;;35.70;19.80;;;;;;;;;;5031413;28;20915;-50
2022/03/31 14:39:54;;;;;;;31.13;20.17;;;;;;;;;;5031482;28;20404;-49
2022/03/31 14:42:21;;;;;;;40.80;21.10;;;;;;;;;;5031162;28;20447;-51
2022/03/31 14:44:47;;;;;;;35.37;20.17;;;;;;;;;;5031134;28;20498;-51
2022/03/31 14:47:13;;;;;;;34.03;19.80;;;;;;;;;;5031316;28;20419;-51